Observation data for Morton on 02/23/2019      Previous  Date  Next       Current Mesonet Observations  Soil Data  Daily Summary Page  Observations in Plain Language
KMNS 230600Z 21008KT 06/06 A2972 RMK A01 T00640061  RH  100%=      5-min Rain = 0
KMNS 230605Z 20005KT 06/06 A2972 RMK A01 T00640061  RH  100%=      5-min Rain = 0
KMNS 230610Z 20006KT 06/06 A2972 RMK A01 T00640061  RH  100%=      5-min Rain = 0
KMNS 230615Z 19006KT 06/06 A2972 RMK A01 T00640061  RH  100%=      5-min Rain = 0
KMNS 230620Z 19007KT 07/06 A2972 RMK A01 T00650062  RH  100%=      5-min Rain = 0
KMNS 230625Z 18005KT 07/06 A2971 RMK A01 T00650062  RH  100%=      5-min Rain = 0
KMNS 230630Z 18005KT 07/06 A2971 RMK A01 T00650062  RH  100%=      5-min Rain = 0
KMNS 230635Z 19006KT 07/06 A2972 RMK A01 T00660062  RH  100%=      5-min Rain = 0
KMNS 230640Z 21007KT 07/06 A2973 RMK A01 T00660063  RH  100%=      5-min Rain = 0.01
KMNS 230645Z 17005KT 07/06 A2971 RMK A01 T00660063  RH  100%=      5-min Rain = 0.01
KMNS 230650Z 21004KT 07/06 A2971 RMK A01 T00660063  RH  100%=      5-min Rain = 0
KMNS 230655Z 21006KT 07/06 A2971 RMK A01 T00660062  RH  100%=      5-min Rain = 0
KMNS 230700Z 21007KT 07/06 A2972 RMK A01 T00660063  RH  100%=      5-min Rain = 0
KMNS 230705Z 21004KT 07/06 A2971 RMK A01 T00660063  RH  100%=      5-min Rain = 0
KMNS 230710Z 21006KT 07/06 A2972 RMK A01 T00670063  RH  100%=      5-min Rain = 0
KMNS 230715Z 22007KT 07/06 A2971 RMK A01 T00660063  RH  100%=      5-min Rain = 0
KMNS 230720Z 21008KT 07/06 A2972 RMK A01 T00660063  RH  100%=      5-min Rain = 0
KMNS 230725Z 21010KT 07/06 A2972 RMK A01 T00670064  RH  100%=      5-min Rain = 0
KMNS 230730Z 22010G15KT 07/07 A2971 RMK A01 T00690065  RH  100%=      5-min Rain = 0
KMNS 230735Z 26016G28KT 07/06 A2971 RMK A01 T00680064  RH  100%=      5-min Rain = 0
KMNS 230740Z 29018G25KT 05/05 A2973 RMK A01 T00530048  RH  099%=      5-min Rain = 0
KMNS 230745Z 29016G21KT 05/04 A2974 RMK A01 T00500043  RH  097%=      5-min Rain = 0
KMNS 230750Z 29014KT 05/04 A2974 RMK A01 T00500041  RH  096%=      5-min Rain = 0
KMNS 230755Z 29012KT 05/04 A2974 RMK A01 T00500040  RH  095%=      5-min Rain = 0.01
KMNS 230800Z 29010KT 05/04 A2974 RMK A01 T00490039  RH  095%=      5-min Rain = 0
KMNS 230805Z 29010KT 05/04 A2974 RMK A01 T00490039  RH  095%=      5-min Rain = 0
KMNS 230810Z 29009KT 05/04 A2973 RMK A01 T00500039  RH  095%=      5-min Rain = 0
KMNS 230815Z 28011KT 05/04 A2973 RMK A01 T00500038  RH  094%=      5-min Rain = 0
KMNS 230820Z 28011KT 05/04 A2974 RMK A01 T00500037  RH  093%=      5-min Rain = 0
KMNS 230825Z 27009KT 05/04 A2973 RMK A01 T00500036  RH  092%=      5-min Rain = 0
KMNS 230830Z 26008KT 05/04 A2973 RMK A01 T00500035  RH  091%=      5-min Rain = 0
KMNS 230835Z 25012G19KT 05/03 A2972 RMK A01 T00510031  RH  088%=      5-min Rain = 0
KMNS 230840Z 23012G23KT 05/02 A297 RMK A01 T00530018  RH  079%=      5-min Rain = 0
KMNS 230845Z 22013G20KT 05/00 A2969 RMK A01 T00490004  RH  074%=      5-min Rain = 0
KMNS 230850Z 22012KT 05/00 A297 RMK A01 T00460001  RH  073%=      5-min Rain = 0
KMNS 230855Z 21011KT 05/M00 A297 RMK A01 T00451001  RH  073%=      5-min Rain = 0
KMNS 230900Z 21011KT 04/M00 A297 RMK A01 T00431001  RH  074%=      5-min Rain = 0
KMNS 230905Z 21010KT 04/00 A297 RMK A01 T00430001  RH  075%=      5-min Rain = 0
KMNS 230910Z 21015G31KT 05/00 A297 RMK A01 T00450002  RH  075%=      5-min Rain = 0
KMNS 230915Z 21029G37KT 05/M00 A297 RMK A01 T00501001  RH  070%=      5-min Rain = 0
KMNS 230920Z 22025G33KT 05/M00 A297 RMK A01 T00471004  RH  070%=      5-min Rain = 0
KMNS 230925Z 23025G35KT 04/M01 A2971 RMK A01 T00431007  RH  071%=      5-min Rain = 0
KMNS 230930Z 23021G29KT 04/M01 A2971 RMK A01 T00401012  RH  070%=      5-min Rain = 0
KMNS 230935Z 23023G32KT 04/M01 A297 RMK A01 T00371014  RH  070%=      5-min Rain = 0
KMNS 230940Z 23025G36KT 04/M02 A297 RMK A01 T00371017  RH  068%=      5-min Rain = 0
KMNS 230945Z 23027G38KT 04/M02 A297 RMK A01 T00371020  RH  067%=      5-min Rain = 0
KMNS 230950Z 25029G42KT 04/M02 A2971 RMK A01 T00371021  RH  066%=      5-min Rain = 0
KMNS 230955Z 26028G37KT 03/M01 A2972 RMK A01 T00281011  RH  076%=      5-min Rain = 0
KMNS 231000Z 26025G33KT 02/M00 A2973 RMK A01 T00221002  RH  085%=      5-min Rain = 0
KMNS 231005Z 26025G33KT 02/00 A2973 RMK A01 T00230002  RH  087%=      5-min Rain = 0
KMNS 231010Z 26026G35KT 02/00 A2973 RMK A01 T00230003  RH  088%=      5-min Rain = 0
KMNS 231015Z 26026G39KT 02/00 A2973 RMK A01 T00230002  RH  087%=      5-min Rain = 0
KMNS 231020Z 26023G31KT 02/00 A2972 RMK A01 T00210001  RH  088%=      5-min Rain = 0
KMNS 231025Z 25021G28KT 02/00 A2972 RMK A01 T00200000  RH  088%=      5-min Rain = 0
KMNS 231030Z 25021G28KT 02/M00 A2972 RMK A01 T00201003  RH  086%=      5-min Rain = 0
KMNS 231035Z 25018G25KT 02/M01 A2971 RMK A01 T00211007  RH  083%=      5-min Rain = 0
KMNS 231040Z 25020G30KT 02/M01 A2971 RMK A01 T00211010  RH  081%=      5-min Rain = 0
KMNS 231045Z 25023G29KT 02/M01 A2971 RMK A01 T00221014  RH  078%=      5-min Rain = 0
KMNS 231050Z 25024G32KT 02/M02 A297 RMK A01 T00201016  RH  078%=      5-min Rain = 0
KMNS 231055Z 25023G31KT 02/M02 A2971 RMK A01 T00191016  RH  078%=      5-min Rain = 0
KMNS 231100Z 25021G27KT 02/M02 A2972 RMK A01 T00181016  RH  079%=      5-min Rain = 0
KMNS 231105Z 25019G24KT 02/M02 A2971 RMK A01 T00171016  RH  080%=      5-min Rain = 0
KMNS 231110Z 25018G23KT 02/M02 A2972 RMK A01 T00161015  RH  081%=      5-min Rain = 0
KMNS 231115Z 24018KT 02/M01 A2972 RMK A01 T00161014  RH  081%=      5-min Rain = 0
KMNS 231120Z 25018G24KT 02/M02 A2972 RMK A01 T00171015  RH  080%=      5-min Rain = 0
KMNS 231125Z 25017G25KT 02/M02 A2971 RMK A01 T00161016  RH  080%=      5-min Rain = 0
KMNS 231130Z 25017G23KT 02/M02 A2972 RMK A01 T00161017  RH  079%=      5-min Rain = 0
KMNS 231135Z 25019G26KT 02/M02 A2972 RMK A01 T00181020  RH  077%=      5-min Rain = 0
KMNS 231140Z 25018G24KT 02/M02 A2972 RMK A01 T00181022  RH  075%=      5-min Rain = 0
KMNS 231145Z 25017G24KT 02/M02 A2972 RMK A01 T00181023  RH  075%=      5-min Rain = 0
KMNS 231150Z 25020G29KT 02/M02 A2971 RMK A01 T00201024  RH  074%=      5-min Rain = 0
KMNS 231155Z 24020G28KT 02/M02 A2971 RMK A01 T00201024  RH  073%=      5-min Rain = 0
KMNS 231200Z 24021G28KT 02/M02 A2971 RMK A01 T00191023  RH  074%=      5-min Rain = 0
KMNS 231205Z 24020G26KT 02/M02 A2971 RMK A01 T00191022  RH  075%=      5-min Rain = 0
KMNS 231210Z 24020G28KT 02/M02 A2971 RMK A01 T00191024  RH  073%=      5-min Rain = 0
KMNS 231215Z 24021G26KT 02/M03 A2971 RMK A01 T00191026  RH  073%=      5-min Rain = 0
KMNS 231220Z 24020G29KT 02/M03 A2971 RMK A01 T00191028  RH  072%=      5-min Rain = 0
KMNS 231225Z 24020G29KT 02/M03 A2971 RMK A01 T00181029  RH  071%=      5-min Rain = 0
KMNS 231230Z 23019G26KT 02/M03 A2971 RMK A01 T00181031  RH  070%=      5-min Rain = 0
KMNS 231235Z 23019G24KT 02/M03 A2971 RMK A01 T00181034  RH  069%=      5-min Rain = 0
KMNS 231240Z 23019G26KT 02/M04 A2971 RMK A01 T00181036  RH  068%=      5-min Rain = 0
KMNS 231245Z 23020G27KT 02/M04 A2972 RMK A01 T00171038  RH  067%=      5-min Rain = 0
KMNS 231250Z 23021G29KT 02/M04 A2972 RMK A01 T00181039  RH  066%=      5-min Rain = 0
KMNS 231255Z 23020KT 02/M04 A2972 RMK A01 T00181040  RH  065%=      5-min Rain = 0
KMNS 231300Z 24020G27KT 02/M04 A2973 RMK A01 T00191042  RH  064%=      5-min Rain = 0
KMNS 231305Z 23020G25KT 02/M05 A2973 RMK A01 T00201045  RH  062%=      5-min Rain = 0
KMNS 231310Z 23021G29KT 02/M05 A2972 RMK A01 T00201047  RH  061%=      5-min Rain = 0
KMNS 231315Z 24022G30KT 02/M05 A2973 RMK A01 T00211050  RH  060%=      5-min Rain = 0
KMNS 231320Z 24021G28KT 02/M05 A2973 RMK A01 T00201050  RH  060%=      5-min Rain = 0
KMNS 231325Z 24021G28KT 02/M05 A2973 RMK A01 T00191052  RH  059%=      5-min Rain = 0
KMNS 231330Z 24024G31KT 02/M05 A2973 RMK A01 T00201053  RH  058%=      5-min Rain = 0
KMNS 231335Z 24023G29KT 02/M05 A2973 RMK A01 T00191054  RH  059%=      5-min Rain = 0
KMNS 231340Z 24022G28KT 02/M05 A2972 RMK A01 T00191054  RH  058%=      5-min Rain = 0
KMNS 231345Z 24023G33KT 02/M06 A2972 RMK A01 T00191055  RH  058%=      5-min Rain = 0
KMNS 231350Z 24025G33KT 02/M06 A2973 RMK A01 T00201055  RH  058%=      5-min Rain = 0
KMNS 231355Z 24027G36KT 02/M06 A2972 RMK A01 T00211057  RH  056%=      5-min Rain = 0
KMNS 231400Z 24026G36KT 02/M06 A2972 RMK A01 T00221058  RH  056%=      5-min Rain = 0
KMNS 231405Z 24025G32KT 02/M06 A2973 RMK A01 T00221057  RH  056%=      5-min Rain = 0
KMNS 231410Z 24026G36KT 02/M06 A2973 RMK A01 T00231057  RH  056%=      5-min Rain = 0
KMNS 231415Z 24027G36KT 03/M06 A2973 RMK A01 T00251058  RH  054%=      5-min Rain = 0
KMNS 231420Z 24026G36KT 03/M06 A2973 RMK A01 T00261058  RH  054%=      5-min Rain = 0
KMNS 231425Z 25026G34KT 03/M06 A2973 RMK A01 T00271059  RH  053%=      5-min Rain = 0
KMNS 231430Z 24027G36KT 03/M06 A2973 RMK A01 T00281059  RH  053%=      5-min Rain = 0
KMNS 231435Z 24026G34KT 03/M06 A2974 RMK A01 T00291058  RH  053%=      5-min Rain = 0
KMNS 231440Z 24026G36KT 03/M06 A2974 RMK A01 T00301057  RH  053%=      5-min Rain = 0
KMNS 231445Z 25025G36KT 03/M06 A2975 RMK A01 T00301056  RH  053%=      5-min Rain = 0
KMNS 231450Z 25028G38KT 03/M06 A2975 RMK A01 T00321058  RH  052%=      5-min Rain = 0
KMNS 231455Z 25028G38KT 03/M06 A2975 RMK A01 T00331058  RH  052%=      5-min Rain = 0
KMNS 231500Z 25029G37KT 03/M06 A2976 RMK A01 T00341057  RH  051%=      5-min Rain = 0
KMNS 231505Z 25029G39KT 04/M06 A2977 RMK A01 T00351056  RH  051%=      5-min Rain = 0
KMNS 231510Z 25027G37KT 04/M05 A2977 RMK A01 T00361054  RH  052%=      5-min Rain = 0
KMNS 231515Z 25029G42KT 04/M05 A2977 RMK A01 T00381053  RH  051%=      5-min Rain = 0
KMNS 231520Z 25028G39KT 04/M05 A2978 RMK A01 T00391054  RH  051%=      5-min Rain = 0
KMNS 231525Z 25026G38KT 04/M05 A2979 RMK A01 T00421051  RH  051%=      5-min Rain = 0
KMNS 231530Z 25030G39KT 04/M05 A2978 RMK A01 T00441052  RH  050%=      5-min Rain = 0
KMNS 231535Z 25027G38KT 05/M05 A2979 RMK A01 T00451051  RH  050%=      5-min Rain = 0
KMNS 231540Z 26030G36KT 05/M05 A2979 RMK A01 T00461052  RH  049%=      5-min Rain = 0
KMNS 231545Z 26029G41KT 05/M05 A2979 RMK A01 T00471051  RH  049%=      5-min Rain = 0
KMNS 231550Z 26029G37KT 05/M05 A2979 RMK A01 T00481051  RH  049%=      5-min Rain = 0
KMNS 231555Z 26031G39KT 05/M05 A2979 RMK A01 T00491051  RH  048%=      5-min Rain = 0
KMNS 231600Z 27030G39KT 05/M05 A2979 RMK A01 T00501051  RH  048%=      5-min Rain = 0
KMNS 231605Z 26029G38KT 05/M05 A2979 RMK A01 T00521047  RH  049%=      5-min Rain = 0
KMNS 231610Z 27031G43KT 05/M05 A2979 RMK A01 T00531049  RH  048%=      5-min Rain = 0
KMNS 231615Z 27032G43KT 05/M05 A2979 RMK A01 T00541048  RH  048%=      5-min Rain = 0
KMNS 231620Z 27030G39KT 06/M05 A298 RMK A01 T00561047  RH  047%=      5-min Rain = 0
KMNS 231625Z 27028G38KT 06/M05 A298 RMK A01 T00591045  RH  047%=      5-min Rain = 0
KMNS 231630Z 27029G38KT 06/M05 A298 RMK A01 T00591045  RH  047%=      5-min Rain = 0
KMNS 231635Z 27031G41KT 06/M05 A298 RMK A01 T00601049  RH  046%=      5-min Rain = 0
KMNS 231640Z 27029G39KT 06/M05 A2981 RMK A01 T00621047  RH  046%=      5-min Rain = 0
KMNS 231645Z 27030G42KT 06/M05 A2982 RMK A01 T00631050  RH  044%=      5-min Rain = 0
KMNS 231650Z 27028G36KT 07/M05 A2982 RMK A01 T00661047  RH  044%=      5-min Rain = 0
KMNS 231655Z 28029G39KT 07/M05 A2983 RMK A01 T00681048  RH  044%=      5-min Rain = 0
KMNS 231700Z 27029G38KT 07/M05 A2983 RMK A01 T00711045  RH  044%=      5-min Rain = 0
KMNS 231705Z 28029G39KT 08/M05 A2984 RMK A01 T00751048  RH  041%=      5-min Rain = 0
KMNS 231710Z 28030G42KT 08/M05 A2984 RMK A01 T00751051  RH  040%=      5-min Rain = 0
KMNS 231715Z 28031G42KT 08/M05 A2985 RMK A01 T00771054  RH  039%=      5-min Rain = 0
KMNS 231720Z 28032G41KT 08/M06 A2985 RMK A01 T00761056  RH  039%=      5-min Rain = 0
KMNS 231725Z 28032G42KT 08/M05 A2985 RMK A01 T00781053  RH  039%=      5-min Rain = 0
KMNS 231730Z 29034G44KT 08/M05 A2985 RMK A01 T00801054  RH  038%=      5-min Rain = 0
KMNS 231735Z 29029G37KT 08/M05 A2986 RMK A01 T00831053  RH  038%=      5-min Rain = 0
KMNS 231740Z 29032G40KT 08/M06 A2986 RMK A01 T00841057  RH  036%=      5-min Rain = 0
KMNS 231745Z 29033G41KT 09/M06 A2987 RMK A01 T00851059  RH  036%=      5-min Rain = 0
KMNS 231750Z 29033G43KT 08/M06 A2987 RMK A01 T00841061  RH  035%=      5-min Rain = 0
KMNS 231755Z 29029G39KT 09/M06 A2987 RMK A01 T00891055  RH  036%=      5-min Rain = 0
KMNS 231800Z 30029G40KT 09/M06 A2988 RMK A01 T00891055  RH  036%=      5-min Rain = 0
KMNS 231805Z 29029G40KT 09/M06 A2988 RMK A01 T00901058  RH  035%=      5-min Rain = 0
KMNS 231810Z 28028G36KT 09/M05 A2988 RMK A01 T00921054  RH  035%=      5-min Rain = 0
KMNS 231815Z 28030G38KT 09/M06 A2988 RMK A01 T00921056  RH  035%=      5-min Rain = 0
KMNS 231820Z 28026G35KT 09/M06 A2989 RMK A01 T00941055  RH  034%=      5-min Rain = 0
KMNS 231825Z 28026G32KT 10/M05 A2989 RMK A01 T00981054  RH  034%=      5-min Rain = 0
KMNS 231830Z 28024G33KT 10/M05 A2989 RMK A01 T01011052  RH  034%=      5-min Rain = 0
KMNS 231835Z 28025G33KT 10/M06 A299 RMK A01 T01011055  RH  033%=      5-min Rain = 0
KMNS 231840Z 29023G29KT 10/M06 A299 RMK A01 T01021055  RH  033%=      5-min Rain = 0
KMNS 231845Z 29021G28KT 11/M06 A2991 RMK A01 T01051055  RH  032%=      5-min Rain = 0
KMNS 231850Z 29021G28KT 11/M05 A2991 RMK A01 T01091054  RH  032%=      5-min Rain = 0
KMNS 231855Z 29024G33KT 11/M05 A299 RMK A01 T01101053  RH  032%=      5-min Rain = 0
KMNS 231900Z 29024G37KT 11/M05 A2991 RMK A01 T01071052  RH  032%=      5-min Rain = 0
KMNS 231905Z 30022G29KT 10/M05 A2991 RMK A01 T01021050  RH  034%=      5-min Rain = 0
KMNS 231910Z 31018G25KT 10/M05 A2991 RMK A01 T00991050  RH  035%=      5-min Rain = 0
KMNS 231915Z 30019G26KT 10/M05 A2991 RMK A01 T01001046  RH  036%=      5-min Rain = 0
KMNS 231920Z 29022G29KT 10/M05 A2991 RMK A01 T00981049  RH  035%=      5-min Rain = 0
KMNS 231925Z 30019G27KT 10/M05 A2991 RMK A01 T01001046  RH  036%=      5-min Rain = 0
KMNS 231930Z 30018G23KT 10/M05 A2991 RMK A01 T01011046  RH  036%=      5-min Rain = 0
KMNS 231935Z 30022G28KT 10/M05 A2991 RMK A01 T01031046  RH  035%=      5-min Rain = 0
KMNS 231940Z 30015G22KT 10/M05 A2991 RMK A01 T01021045  RH  035%=      5-min Rain = 0
KMNS 231945Z 31018G25KT 10/M05 A2991 RMK A01 T01001046  RH  036%=      5-min Rain = 0
KMNS 231950Z 31016G24KT 10/M04 A2992 RMK A01 T01001044  RH  036%=      5-min Rain = 0
KMNS 231955Z 30019G26KT 10/M05 A2992 RMK A01 T00981047  RH  036%=      5-min Rain = 0
KMNS 232000Z 31016G28KT 10/M05 A2991 RMK A01 T00991045  RH  036%=      5-min Rain = 0
KMNS 232005Z 32018G23KT 10/M05 A2992 RMK A01 T01031045  RH  035%=      5-min Rain = 0
KMNS 232010Z 31018KT 10/M05 A2992 RMK A01 T01021049  RH  034%=      5-min Rain = 0
KMNS 232015Z 31019G24KT 11/M05 A2992 RMK A01 T01061046  RH  034%=      5-min Rain = 0
KMNS 232020Z 30016G23KT 11/M05 A2992 RMK A01 T01061047  RH  034%=      5-min Rain = 0
KMNS 232025Z 31018G24KT 11/M05 A2992 RMK A01 T01111046  RH  033%=      5-min Rain = 0
KMNS 232030Z 32014G21KT 11/M04 A2993 RMK A01 T01051044  RH  035%=      5-min Rain = 0
KMNS 232035Z 31018G23KT 11/M05 A2993 RMK A01 T01061045  RH  035%=      5-min Rain = 0
KMNS 232040Z 31018G24KT 11/M05 A2993 RMK A01 T01071047  RH  034%=      5-min Rain = 0
KMNS 232045Z 32018KT 11/M05 A2993 RMK A01 T01091046  RH  034%=      5-min Rain = 0
KMNS 232050Z 32016G21KT 11/M05 A2994 RMK A01 T01091049  RH  033%=      5-min Rain = 0
KMNS 232055Z 32014G19KT 11/M05 A2994 RMK A01 T01111047  RH  033%=      5-min Rain = 0
KMNS 232100Z 32013G20KT 11/M05 A2994 RMK A01 T01081048  RH  033%=      5-min Rain = 0
KMNS 232105Z 31014G19KT 11/M05 A2994 RMK A01 T01071047  RH  034%=      5-min Rain = 0
KMNS 232110Z 32012KT 11/M05 A2995 RMK A01 T01061047  RH  034%=      5-min Rain = 0
KMNS 232115Z 32011KT 11/M05 A2994 RMK A01 T01051049  RH  034%=      5-min Rain = 0
KMNS 232120Z 31012G17KT 11/M05 A2995 RMK A01 T01071047  RH  034%=      5-min Rain = 0
KMNS 232125Z 31011G17KT 11/M05 A2995 RMK A01 T01111047  RH  033%=      5-min Rain = 0
KMNS 232130Z 30012G17KT 11/M05 A2995 RMK A01 T01111052  RH  032%=      5-min Rain = 0
KMNS 232135Z 32009KT 11/M05 A2995 RMK A01 T01091049  RH  033%=      5-min Rain = 0
KMNS 232140Z 32009KT 12/M05 A2995 RMK A01 T01201045  RH  031%=      5-min Rain = 0
KMNS 232145Z 28013G19KT 13/M06 A2996 RMK A01 T01281060  RH  027%=      5-min Rain = 0
KMNS 232150Z 30011G17KT 13/M07 A2996 RMK A01 T01311065  RH  025%=      5-min Rain = 0
KMNS 232155Z 29013G20KT 14/M06 A2996 RMK A01 T01351063  RH  025%=      5-min Rain = 0
KMNS 232200Z 30018KT 12/M07 A2996 RMK A01 T01241070  RH  025%=      5-min Rain = 0
KMNS 232205Z 31017G23KT 13/M07 A2997 RMK A01 T01261070  RH  025%=      5-min Rain = 0
KMNS 232210Z 31013KT 13/M08 A2996 RMK A01 T01261075  RH  024%=      5-min Rain = 0
KMNS 232215Z 28015G22KT 13/M08 A2996 RMK A01 T01301077  RH  023%=      5-min Rain = 0
KMNS 232220Z 31014KT 13/M08 A2996 RMK A01 T01281079  RH  023%=      5-min Rain = 0
KMNS 232225Z 30015G20KT 13/M08 A2996 RMK A01 T01281082  RH  022%=      5-min Rain = 0
KMNS 232230Z 29014G19KT 13/M08 A2997 RMK A01 T01301083  RH  022%=      5-min Rain = 0
KMNS 232235Z 30016KT 13/M09 A2997 RMK A01 T01281086  RH  022%=      5-min Rain = 0
KMNS 232240Z 30013KT 13/M09 A2997 RMK A01 T01291086  RH  021%=      5-min Rain = 0
KMNS 232245Z 30012G17KT 13/M09 A2997 RMK A01 T01311085  RH  021%=      5-min Rain = 0
KMNS 232250Z 29016KT 13/M09 A2997 RMK A01 T01281091  RH  021%=      5-min Rain = 0
KMNS 232255Z 29013G20KT 13/M09 A2997 RMK A01 T01301088  RH  021%=      5-min Rain = 0
KMNS 232300Z 29014G19KT 13/M09 A2997 RMK A01 T01291090  RH  021%=      5-min Rain = 0
KMNS 232305Z 28013G18KT 13/M09 A2998 RMK A01 T01291091  RH  021%=      5-min Rain = 0
KMNS 232310Z 28014KT 13/M09 A2998 RMK A01 T01281093  RH  020%=      5-min Rain = 0
KMNS 232315Z 29013G18KT 13/M09 A2998 RMK A01 T01271094  RH  020%=      5-min Rain = 0
KMNS 232320Z 30014G21KT 13/M09 A2999 RMK A01 T01271094  RH  020%=      5-min Rain = 0
KMNS 232325Z 29013KT 13/M10 A2999 RMK A01 T01251097  RH  020%=      5-min Rain = 0
KMNS 232330Z 29014G20KT 13/M10 A2999 RMK A01 T01251097  RH  020%=      5-min Rain = 0
KMNS 232335Z 30011KT 13/M10 A2999 RMK A01 T01251097  RH  020%=      5-min Rain = 0
KMNS 232340Z 30013G20KT 12/M10 A2999 RMK A01 T01241100  RH  020%=      5-min Rain = 0
KMNS 232345Z 30013KT 12/M10 A2999 RMK A01 T01231101  RH  020%=      5-min Rain = 0
KMNS 232350Z 30011KT 12/M10 A30 RMK A01 T01221102  RH  020%=      5-min Rain = 0
KMNS 232355Z 29011KT 12/M10 A30 RMK A01 T01211102  RH  020%=      5-min Rain = 0
KMNS 240000Z 29010KT 12/M10 A30 RMK A01 T01191102  RH  020%=      5-min Rain = 0
KMNS 240005Z 28008KT 12/M09 A3001 RMK A01 T01181093  RH  022%=      5-min Rain = 0
KMNS 240010Z 28009KT 12/M09 A3001 RMK A01 T01151094  RH  022%=      5-min Rain = 0
KMNS 240015Z 28009KT 11/M10 A30 RMK A01 T01121095  RH  022%=      5-min Rain = 0
KMNS 240020Z 28010KT 11/M09 A3001 RMK A01 T01091091  RH  024%=      5-min Rain = 0
KMNS 240025Z 28009KT 10/M09 A3001 RMK A01 T01031086  RH  025%=      5-min Rain = 0
KMNS 240030Z 28009KT 10/M09 A3001 RMK A01 T00981085  RH  027%=      5-min Rain = 0
KMNS 240035Z 27009KT 10/M09 A3001 RMK A01 T00951085  RH  027%=      5-min Rain = 0
KMNS 240040Z 27008KT 09/M08 A3001 RMK A01 T00901081  RH  029%=      5-min Rain = 0
KMNS 240045Z 27008KT 09/M08 A3001 RMK A01 T00851081  RH  030%=      5-min Rain = 0
KMNS 240050Z 27009KT 08/M08 A3001 RMK A01 T00841082  RH  030%=      5-min Rain = 0
KMNS 240055Z 27009KT 08/M08 A3002 RMK A01 T00821083  RH  030%=      5-min Rain = 0
KMNS 240100Z 27008KT 08/M08 A3002 RMK A01 T00791083  RH  031%=      5-min Rain = 0
KMNS 240105Z 27007KT 08/M08 A3003 RMK A01 T00761081  RH  032%=      5-min Rain = 0
KMNS 240110Z 26007KT 07/M08 A3003 RMK A01 T00721081  RH  033%=      5-min Rain = 0
KMNS 240115Z 26007KT 07/M08 A3003 RMK A01 T00691080  RH  033%=      5-min Rain = 0
KMNS 240120Z 27006KT 07/M08 A3004 RMK A01 T00651079  RH  035%=      5-min Rain = 0
KMNS 240125Z 27006KT 06/M08 A3004 RMK A01 T00591081  RH  036%=      5-min Rain = 0
KMNS 240130Z 27007KT 06/M08 A3005 RMK A01 T00571077  RH  037%=      5-min Rain = 0
KMNS 240135Z 27008KT 06/M08 A3005 RMK A01 T00601079  RH  036%=      5-min Rain = 0
KMNS 240140Z 26008KT 06/M08 A3006 RMK A01 T00601080  RH  036%=      5-min Rain = 0
KMNS 240145Z 26006KT 06/M08 A3007 RMK A01 T00561078  RH  037%=      5-min Rain = 0
KMNS 240150Z 01005KT 05/M07 A3007 RMK A01 T00451073  RH  042%=      5-min Rain = 0
KMNS 240155Z 00006KT 06/M08 A3008 RMK A01 T00571077  RH  038%=      5-min Rain = 0
KMNS 240200Z 34004KT 07/M09 A3008 RMK A01 T00661088  RH  032%=      5-min Rain = 0
KMNS 240205Z 33005G10KT 07/M09 A3009 RMK A01 T00691089  RH  031%=      5-min Rain = 0
KMNS 240210Z 34004KT 07/M08 A3009 RMK A01 T00691079  RH  034%=      5-min Rain = 0
KMNS 240215Z 04006KT 06/M05 A301 RMK A01 T00611050  RH  045%=      5-min Rain = 0
KMNS 240220Z 30002KT 06/M06 A301 RMK A01 T00581056  RH  044%=      5-min Rain = 0
KMNS 240225Z 33002KT 06/M06 A301 RMK A01 T00571060  RH  043%=      5-min Rain = 0
KMNS 240230Z 13001KT 06/M06 A3011 RMK A01 T00561059  RH  044%=      5-min Rain = 0
KMNS 240235Z 04004KT 05/M05 A3011 RMK A01 T00521050  RH  048%=      5-min Rain = 0
KMNS 240240Z 06004KT 04/M04 A3011 RMK A01 T00411041  RH  055%=      5-min Rain = 0
KMNS 240245Z 26003KT 05/M05 A3011 RMK A01 T00501054  RH  047%=      5-min Rain = 0
KMNS 240250Z 36003KT 06/M05 A3011 RMK A01 T00621050  RH  045%=      5-min Rain = 0
KMNS 240255Z 35003KT 04/M05 A3012 RMK A01 T00431052  RH  050%=      5-min Rain = 0
KMNS 240300Z 02001KT 04/M05 A3012 RMK A01 T00431050  RH  051%=      5-min Rain = 0
KMNS 240305Z 31001KT 05/M05 A3012 RMK A01 T00451053  RH  049%=      5-min Rain = 0
KMNS 240310Z 34003KT 06/M07 A3013 RMK A01 T00551066  RH  042%=      5-min Rain = 0
KMNS 240315Z 33004KT 05/M07 A3013 RMK A01 T00481065  RH  044%=      5-min Rain = 0
KMNS 240320Z 32004KT 05/M07 A3013 RMK A01 T00461066  RH  044%=      5-min Rain = 0
KMNS 240325Z 33005KT 04/M06 A3013 RMK A01 T00391063  RH  047%=      5-min Rain = 0
KMNS 240330Z 33006KT 05/M06 A3013 RMK A01 T00451063  RH  045%=      5-min Rain = 0
KMNS 240335Z 32007KT 04/M07 A3014 RMK A01 T00431068  RH  044%=      5-min Rain = 0
KMNS 240340Z 31007KT 04/M07 A3014 RMK A01 T00351067  RH  047%=      5-min Rain = 0
KMNS 240345Z 31008KT 03/M06 A3014 RMK A01 T00311063  RH  050%=      5-min Rain = 0
KMNS 240350Z 30007KT 03/M07 A3014 RMK A01 T00291069  RH  048%=      5-min Rain = 0
KMNS 240355Z 31006KT 02/M07 A3015 RMK A01 T00201072  RH  050%=      5-min Rain = 0
KMNS 240400Z 31006KT 01/M07 A3015 RMK A01 T00131073  RH  053%=      5-min Rain = 0
KMNS 240405Z 31006KT 02/M08 A3015 RMK A01 T00181075  RH  050%=      5-min Rain = 0
KMNS 240410Z 31005KT 02/M08 A3016 RMK A01 T00231080  RH  047%=      5-min Rain = 0
KMNS 240415Z 31004KT 02/M08 A3016 RMK A01 T00231083  RH  045%=      5-min Rain = 0
KMNS 240420Z 30003KT 02/M09 A3017 RMK A01 T00221087  RH  044%=      5-min Rain = 0
KMNS 240425Z 28002KT 02/M09 A3017 RMK A01 T00231087  RH  044%=      5-min Rain = 0
KMNS 240430Z 28002KT 02/M09 A3017 RMK A01 T00241085  RH  044%=      5-min Rain = 0
KMNS 240435Z 29004KT 03/M09 A3018 RMK A01 T00291090  RH  041%=      5-min Rain = 0
KMNS 240440Z 29006KT 02/M09 A3018 RMK A01 T00161088  RH  046%=      5-min Rain = 0
KMNS 240445Z 29007KT 01/M09 A3018 RMK A01 T00071085  RH  050%=      5-min Rain = 0
KMNS 240450Z 29008KT 00/M08 A3018 RMK A01 T00031080  RH  053%=      5-min Rain = 0
KMNS 240455Z 29007KT 00/M08 A3018 RMK A01 T00011079  RH  054%=      5-min Rain = 0
KMNS 240500Z 29006KT 00/M08 A3018 RMK A01 T00041078  RH  054%=      5-min Rain = 0
KMNS 240505Z 27005KT 00/M08 A3019 RMK A01 T00021077  RH  055%=      5-min Rain = 0
KMNS 240510Z 30007KT 00/M08 A3019 RMK A01 T00021079  RH  054%=      5-min Rain = 0
KMNS 240515Z 32006KT M00/M08 A3019 RMK A01 T10011080  RH  055%=      5-min Rain = 0
KMNS 240520Z 33005KT M01/M08 A302 RMK A01 T10141081  RH  060%=      5-min Rain = 0
KMNS 240525Z 33004KT M01/M08 A302 RMK A01 T10131081  RH  060%=      5-min Rain = 0
KMNS 240530Z 34003KT M01/M08 A302 RMK A01 T10101079  RH  059%=      5-min Rain = 0
KMNS 240535Z 31005KT M01/M08 A302 RMK A01 T10091079  RH  059%=      5-min Rain = 0
KMNS 240540Z 29006KT M01/M08 A302 RMK A01 T10091082  RH  058%=      5-min Rain = 0
KMNS 240545Z 28006KT M01/M08 A302 RMK A01 T10141078  RH  061%=      5-min Rain = 0
KMNS 240550Z 28007KT M02/M08 A302 RMK A01 T10201076  RH  065%=      5-min Rain = 0
KMNS 240555Z 29007KT M02/M08 A302 RMK A01 T10161076  RH  064%=      5-min Rain = 0

Page generated in 0.0187 seconds.